Time;durP1;ratioP1;P1;durP2;ratioP2;P2;SDS_P1;SDS_P2;PMS_P1;PMS_P2;Temp;Humidity;BMP_temperature;BMP_pressure;BME280_temperature;BME280_humidity;BME280_pressure;Samples;Min_cycle;Max_cycle;Signal;HPM_P1;HPM_P2
2022/05/15 00:00:53;;;;;;;20.58;5.70;;;10.90;99.90;;;;;;5053030;28;20395;-82
2022/05/15 00:03:22;;;;;;;14.52;5.68;;;10.90;99.90;;;;;;5051900;28;20045;-82
2022/05/15 00:05:54;;;;;;;15.60;5.55;;;10.90;99.90;;;;;;5044182;28;20032;-82
2022/05/15 00:08:20;;;;;;;15.02;5.32;;;10.80;99.90;;;;;;5052335;28;20072;-82
2022/05/15 00:10:46;;;;;;;14.40;5.65;;;10.80;99.90;;;;;;5051257;28;20063;-81
2022/05/15 00:13:12;;;;;;;14.15;4.43;;;10.70;99.90;;;;;;5050374;28;20044;-81
2022/05/15 00:15:39;;;;;;;12.60;4.10;;;10.70;99.90;;;;;;5053752;28;20450;-80
2022/05/15 00:18:06;;;;;;;11.43;3.65;;;10.60;99.90;;;;;;5053321;28;20041;-81
2022/05/15 00:20:32;;;;;;;14.63;4.93;;;10.60;99.90;;;;;;5034630;28;20131;-80
2022/05/15 00:22:58;;;;;;;12.63;4.72;;;10.60;99.90;;;;;;5035745;28;20430;-79
2022/05/15 00:25:24;;;;;;;7.38;3.00;;;10.60;99.90;;;;;;5050263;28;20040;-80
2022/05/15 00:27:50;;;;;;;8.75;2.70;;;10.60;99.90;;;;;;5048768;28;20042;-80
2022/05/15 00:30:17;;;;;;;8.73;2.42;;;10.50;99.90;;;;;;5043329;28;20078;-80
2022/05/15 00:32:43;;;;;;;5.53;2.45;;;10.50;99.90;;;;;;5051512;28;20056;-80
2022/05/15 00:35:09;;;;;;;10.38;3.72;;;10.40;99.90;;;;;;5049523;28;20505;-81
2022/05/15 00:37:35;;;;;;;8.40;4.10;;;10.30;99.90;;;;;;5045231;28;20514;-81
2022/05/15 00:40:01;;;;;;;10.27;4.20;;;10.20;99.90;;;;;;5051026;28;20036;-81
2022/05/15 00:42:26;;;;;;;10.93;4.40;;;10.10;99.90;;;;;;5043594;28;20460;-81
2022/05/15 00:44:52;;;;;;;7.32;4.45;;;10.10;99.90;;;;;;5045911;28;20160;-80
2022/05/15 00:47:18;;;;;;;8.85;4.85;;;10.00;99.90;;;;;;5050076;28;20076;-82
2022/05/15 00:49:45;;;;;;;7.47;4.22;;;10.00;99.90;;;;;;5051256;28;20402;-81
2022/05/15 00:52:15;;;;;;;5.90;3.80;;;9.90;99.90;;;;;;5044540;28;20442;-81
2022/05/15 00:54:45;;;;;;;7.55;4.15;;;9.90;99.90;;;;;;5050636;28;20063;-81
2022/05/15 00:57:22;;;;;;;8.20;4.50;;;9.90;99.90;;;;;;5050998;28;20079;-80
2022/05/15 01:00:15;;;;;;;9.93;4.40;;;9.90;99.90;;;;;;5034392;28;20291;-80
2022/05/15 01:02:46;;;;;;;10.35;4.03;;;9.90;99.90;;;;;;5033471;28;20048;-81
2022/05/15 01:05:13;;;;;;;8.00;3.80;;;9.90;99.90;;;;;;5048800;28;20399;-80
2022/05/15 01:07:38;;;;;;;8.57;3.40;;;9.90;99.90;;;;;;5050473;28;20045;-80
2022/05/15 01:10:06;;;;;;;5.50;3.20;;;9.90;99.90;;;;;;5050154;28;20438;-80
2022/05/15 01:12:33;;;;;;;12.63;4.47;;;9.90;99.90;;;;;;5049846;28;20101;-81
2022/05/15 01:14:59;;;;;;;11.38;4.00;;;9.90;99.90;;;;;;5050307;28;20434;-80
2022/05/15 01:17:25;;;;;;;16.40;4.32;;;9.90;99.90;;;;;;5052224;28;20068;-81
2022/05/15 01:19:59;;;;;;;11.50;4.30;;;9.90;99.90;;;;;;5052471;28;20040;-80
2022/05/15 01:22:25;;;;;;;;;;;9.90;99.90;;;;;;5051913;28;20056;-80
2022/05/15 01:24:50;;;;;;;12.27;4.60;;;9.90;99.90;;;;;;5051039;28;19921;-81
2022/05/15 01:27:16;;;;;;;9.30;4.00;;;9.90;99.90;;;;;;5046757;28;20048;-80
2022/05/15 01:29:45;;;;;;;7.93;3.78;;;9.90;99.90;;;;;;5034972;28;20120;-81
2022/05/15 01:32:11;;;;;;;9.35;3.35;;;9.90;99.90;;;;;;5048929;28;20032;-82
2022/05/15 01:34:38;;;;;;;7.75;3.85;;;9.90;99.90;;;;;;5048577;28;20118;-80
2022/05/15 01:37:04;;;;;;;12.23;4.18;;;9.90;99.90;;;;;;5049982;28;20040;-81
2022/05/15 01:39:30;;;;;;;8.75;3.20;;;9.80;99.90;;;;;;5051753;28;20044;-80
2022/05/15 01:41:57;;;;;;;9.25;2.78;;;9.80;99.90;;;;;;5050191;28;20036;-81
2022/05/15 01:44:22;;;;;;;5.10;2.00;;;9.80;99.90;;;;;;5065995;28;20044;-80
2022/05/15 01:46:48;;;;;;;5.75;1.98;;;9.70;99.90;;;;;;5049529;28;20460;-80
2022/05/15 01:49:15;;;;;;;6.18;2.03;;;9.70;99.90;;;;;;5051489;28;20519;-80
2022/05/15 01:51:42;;;;;;;4.55;1.98;;;9.50;99.90;;;;;;5049280;28;20098;-80
2022/05/15 01:54:09;;;;;;;8.27;2.83;;;9.50;99.90;;;;;;5050414;28;20044;-80
2022/05/15 01:56:36;;;;;;;6.65;2.00;;;9.50;99.90;;;;;;5034472;28;20045;-80
2022/05/15 01:59:04;;;;;;;4.13;2.20;;;9.40;99.90;;;;;;5046128;28;20061;-80
2022/05/15 02:01:29;;;;;;;5.05;2.47;;;9.30;99.90;;;;;;5048426;28;20063;-80
2022/05/15 02:03:55;;;;;;;5.63;3.10;;;9.20;99.90;;;;;;5032086;28;20032;-80
2022/05/15 02:06:21;;;;;;;11.90;2.85;;;9.10;99.90;;;;;;5047388;28;20461;-80
2022/05/15 02:08:48;;;;;;;9.48;3.20;;;9.20;99.90;;;;;;5049688;28;20029;-80
2022/05/15 02:11:14;;;;;;;6.25;2.70;;;9.10;99.90;;;;;;5033304;28;20029;-80
2022/05/15 02:13:40;;;;;;;8.35;3.45;;;9.10;99.90;;;;;;5049296;28;20073;-80
2022/05/15 02:16:06;;;;;;;7.70;5.00;;;9.10;99.90;;;;;;5049564;28;20048;-80
2022/05/15 02:18:32;;;;;;;11.35;4.88;;;9.10;99.90;;;;;;5034470;28;20044;-80
2022/05/15 02:20:58;;;;;;;5.20;3.70;;;9.10;99.90;;;;;;5049765;28;20564;-80
2022/05/15 02:23:23;;;;;;;6.43;3.70;;;9.10;99.90;;;;;;5049657;28;20040;-81
2022/05/15 02:25:49;;;;;;;6.72;4.00;;;9.10;99.90;;;;;;5048485;28;20082;-81
2022/05/15 02:28:15;;;;;;;7.32;3.83;;;9.10;99.90;;;;;;5050523;28;20535;-81
2022/05/15 02:30:41;;;;;;;7.25;3.22;;;9.10;99.90;;;;;;5044795;28;20619;-81
2022/05/15 02:33:07;;;;;;;7.38;3.30;;;9.10;99.90;;;;;;5066054;28;20033;-81
2022/05/15 02:35:33;;;;;;;7.43;2.80;;;9.10;99.90;;;;;;5048665;28;20545;-81
2022/05/15 02:37:59;;;;;;;2.90;1.80;;;9.10;99.90;;;;;;5049205;28;20163;-81
2022/05/15 02:40:25;;;;;;;4.45;1.70;;;9.00;99.90;;;;;;5049200;28;20443;-80
2022/05/15 02:42:53;;;;;;;3.13;1.55;;;9.00;99.90;;;;;;5049872;28;20041;-80
2022/05/15 02:45:18;;;;;;;4.32;1.70;;;9.00;99.90;;;;;;5049518;28;20037;-80
2022/05/15 02:47:45;;;;;;;6.90;3.00;;;9.00;99.90;;;;;;5040847;28;20136;-80
2022/05/15 02:52:55;;;;;;;4.47;2.08;;;8.90;99.90;;;;;;5062190;28;20041;-80
2022/05/15 02:55:25;;;;;;;3.50;1.92;;;8.90;99.90;;;;;;5033333;28;20037;-80
2022/05/15 02:57:51;;;;;;;6.35;2.22;;;8.80;99.90;;;;;;5052917;28;20046;-80
2022/05/15 03:00:20;;;;;;;6.72;2.20;;;8.80;99.90;;;;;;5036904;28;20087;-80
2022/05/15 03:02:46;;;;;;;4.05;1.95;;;8.80;99.90;;;;;;5060943;28;20107;-79
2022/05/15 03:05:13;;;;;;;5.53;2.20;;;8.70;99.90;;;;;;5052001;28;20029;-80
2022/05/15 03:07:39;;;;;;;4.95;1.98;;;8.70;99.90;;;;;;5051757;28;20535;-79
2022/05/15 03:10:06;;;;;;;5.05;2.38;;;8.70;99.90;;;;;;5042633;28;20029;-79
2022/05/15 03:12:32;;;;;;;8.65;2.70;;;8.70;99.90;;;;;;5052478;28;22033;-80
2022/05/15 03:14:58;;;;;;;8.23;2.95;;;8.70;99.90;;;;;;5051996;28;20083;-80
2022/05/15 03:17:24;;;;;;;13.15;2.85;;;8.70;99.90;;;;;;5052580;28;20132;-80
2022/05/15 03:19:49;;;;;;;8.60;2.70;;;8.70;99.90;;;;;;5068910;28;20458;-79
2022/05/15 03:22:15;;;;;;;7.30;2.40;;;8.70;99.90;;;;;;5053586;28;20068;-79
2022/05/15 03:24:40;;;;;;;9.85;3.10;;;8.60;99.90;;;;;;5052457;28;20407;-80
2022/05/15 03:27:06;;;;;;;8.80;3.17;;;8.60;99.90;;;;;;5031075;28;20041;-80
2022/05/15 03:29:32;;;;;;;4.93;2.60;;;8.60;99.90;;;;;;5050925;28;20059;-80
2022/05/15 03:31:57;;;;;;;3.88;2.83;;;8.50;99.90;;;;;;5053120;28;20035;-80
2022/05/15 03:34:23;;;;;;;5.43;2.80;;;8.50;99.90;;;;;;5050763;28;20044;-80
2022/05/15 03:36:53;;;;;;;4.65;2.70;;;8.50;99.90;;;;;;5050385;28;20029;-80
2022/05/15 03:39:21;;;;;;;8.18;3.10;;;8.60;99.90;;;;;;5053997;28;20132;-80
2022/05/15 03:41:51;;;;;;;8.55;3.38;;;8.50;99.90;;;;;;5049901;28;20052;-80
2022/05/15 03:44:17;;;;;;;9.15;2.92;;;8.60;99.90;;;;;;5049744;28;20051;-80
2022/05/15 03:46:43;;;;;;;5.38;2.22;;;8.60;99.90;;;;;;5048304;28;20056;-79
2022/05/15 03:49:11;;;;;;;5.65;2.35;;;8.50;99.90;;;;;;5048604;28;20057;-79
2022/05/15 03:51:37;;;;;;;12.15;3.15;;;8.50;99.90;;;;;;5050202;28;20047;-79
2022/05/15 03:54:03;;;;;;;7.70;2.92;;;8.50;99.90;;;;;;5051094;28;20402;-79
2022/05/15 03:59:15;;;;;;;7.85;2.30;;;8.40;99.90;;;;;;5048047;28;20085;-80
2022/05/15 04:01:41;;;;;;;4.55;2.38;;;8.40;99.90;;;;;;5052485;28;20049;-79
2022/05/15 04:04:08;;;;;;;8.13;2.40;;;8.40;99.90;;;;;;5033035;28;20044;-80
2022/05/15 04:06:33;;;;;;;6.13;3.08;;;8.50;99.90;;;;;;5051852;28;20045;-79
2022/05/15 04:08:59;;;;;;;7.00;2.90;;;8.40;99.90;;;;;;5047570;28;20045;-79
2022/05/15 04:11:25;;;;;;;4.03;2.35;;;8.50;99.90;;;;;;5051674;28;20041;-79
2022/05/15 04:13:50;;;;;;;5.40;2.97;;;8.40;99.90;;;;;;5050835;28;20029;-79
2022/05/15 04:16:16;;;;;;;5.68;3.40;;;8.50;99.90;;;;;;5048762;28;20041;-79
2022/05/15 04:18:41;;;;;;;5.50;3.00;;;8.50;99.90;;;;;;5049502;28;20124;-79
2022/05/15 04:21:07;;;;;;;8.05;3.53;;;8.60;99.90;;;;;;5051438;28;20442;-79
2022/05/15 04:23:33;;;;;;;7.60;3.50;;;8.60;99.90;;;;;;5044477;28;20048;-79
2022/05/15 04:25:59;;;;;;;7.40;3.38;;;8.60;99.90;;;;;;5050645;28;20037;-79
2022/05/15 04:28:24;;;;;;;4.72;2.65;;;8.70;99.90;;;;;;5050113;28;20099;-79
2022/05/15 04:30:50;;;;;;;7.22;2.90;;;8.70;99.90;;;;;;5051544;28;20071;-79
2022/05/15 04:33:16;;;;;;;7.47;3.50;;;8.80;99.90;;;;;;5044969;28;20032;-79
2022/05/15 04:35:41;;;;;;;12.10;3.55;;;8.80;99.90;;;;;;5048505;28;20131;-80
2022/05/15 04:38:08;;;;;;;15.30;5.18;;;8.80;99.90;;;;;;5038775;28;20103;-80
2022/05/15 04:40:34;;;;;;;15.65;6.05;;;8.90;99.90;;;;;;5050980;28;20137;-81
2022/05/15 04:42:59;;;;;;;16.20;6.13;;;9.00;99.90;;;;;;5050549;28;20123;-81
2022/05/15 04:45:26;;;;;;;19.25;6.25;;;9.10;99.90;;;;;;5032926;28;20033;-81
2022/05/15 04:47:51;;;;;;;19.20;5.95;;;9.30;99.90;;;;;;5034541;28;20029;-80
2022/05/15 04:50:18;;;;;;;13.50;5.88;;;9.40;99.90;;;;;;5050577;28;20037;-81
2022/05/15 04:52:44;;;;;;;16.50;6.13;;;9.50;99.90;;;;;;5051128;28;20500;-80
2022/05/15 04:55:10;;;;;;;18.40;6.55;;;9.60;99.90;;;;;;5050248;28;20498;-82
2022/05/15 04:57:36;;;;;;;16.95;5.88;;;9.70;99.90;;;;;;5049948;28;20119;-80
2022/05/15 05:00:05;;;;;;;15.57;5.35;;;9.80;99.90;;;;;;5052053;28;20618;-80
2022/05/15 05:02:31;;;;;;;16.33;5.88;;;9.90;99.90;;;;;;5051386;28;20479;-80
2022/05/15 05:04:59;;;;;;;14.60;5.63;;;10.00;99.90;;;;;;5050719;28;20090;-80
2022/05/15 05:07:26;;;;;;;17.10;5.80;;;10.10;99.90;;;;;;5051820;28;20056;-80
2022/05/15 05:09:51;;;;;;;13.82;5.55;;;10.20;99.90;;;;;;5048137;28;20075;-80
2022/05/15 05:12:17;;;;;;;18.33;6.20;;;10.30;99.90;;;;;;5050255;28;20069;-81
2022/05/15 05:14:42;;;;;;;21.70;6.20;;;10.40;99.90;;;;;;5047927;28;20554;-81
2022/05/15 05:17:08;;;;;;;19.10;6.10;;;10.50;99.90;;;;;;5043530;28;20037;-81
2022/05/15 05:19:33;;;;;;;13.98;6.45;;;10.60;99.90;;;;;;5049585;28;20053;-80
2022/05/15 05:21:59;;;;;;;21.90;6.72;;;10.70;99.90;;;;;;5049040;28;20087;-82
2022/05/15 05:24:24;;;;;;;20.20;7.32;;;10.80;99.90;;;;;;5066041;28;20068;-81
2022/05/15 05:26:50;;;;;;;20.50;7.25;;;11.00;99.90;;;;;;5050932;28;20509;-81
2022/05/15 05:29:15;;;;;;;21.75;7.00;;;11.10;99.90;;;;;;5051195;28;20082;-81
2022/05/15 05:31:41;;;;;;;23.23;7.30;;;11.20;99.90;;;;;;5050353;28;20058;-81
2022/05/15 05:34:06;;;;;;;23.88;8.60;;;11.30;99.90;;;;;;5050306;28;20037;-81
2022/05/15 05:36:32;;;;;;;21.52;8.38;;;11.40;99.90;;;;;;5050894;28;20045;-81
2022/05/15 05:38:58;;;;;;;24.35;7.82;;;11.50;99.90;;;;;;5050914;28;20055;-81
2022/05/15 05:41:24;;;;;;;22.42;7.75;;;11.60;99.90;;;;;;5050753;28;20040;-81
2022/05/15 05:43:49;;;;;;;28.92;8.32;;;11.70;99.90;;;;;;5031944;28;20178;-82
2022/05/15 05:46:15;;;;;;;25.92;8.30;;;11.80;99.90;;;;;;5048617;28;20120;-81
2022/05/15 05:48:45;;;;;;;28.65;7.88;;;11.90;99.90;;;;;;5049081;28;20037;-80
2022/05/15 05:51:12;;;;;;;27.33;7.82;;;12.00;99.90;;;;;;5050572;28;20076;-82
2022/05/15 05:53:38;;;;;;;26.13;7.45;;;12.20;99.90;;;;;;5049318;28;20568;-81
2022/05/15 05:56:04;;;;;;;19.58;7.65;;;12.30;99.90;;;;;;5049739;28;20048;-81
2022/05/15 05:58:30;;;;;;;28.08;8.32;;;12.30;99.90;;;;;;5051090;28;20037;-82
2022/05/15 06:00:56;;;;;;;21.60;8.52;;;12.50;99.90;;;;;;5050757;28;20040;-81
2022/05/15 06:06:06;;;;;;;26.77;8.68;;;12.70;99.90;;;;;;5067525;28;20044;-81
2022/05/15 06:08:31;;;;;;;27.42;8.27;;;12.80;99.90;;;;;;5050965;28;20040;-80
2022/05/15 06:10:57;;;;;;;25.80;7.85;;;12.90;99.90;;;;;;5044145;28;20033;-82
2022/05/15 06:13:23;;;;;;;21.80;7.72;;;13.00;99.90;;;;;;5044442;28;20033;-82
2022/05/15 06:15:49;;;;;;;26.35;8.20;;;13.10;99.90;;;;;;5026302;28;20051;-82
2022/05/15 06:18:15;;;;;;;33.53;8.35;;;13.20;99.90;;;;;;5059214;28;20065;-84
2022/05/15 06:20:40;;;;;;;23.92;7.60;;;13.30;99.90;;;;;;5028847;28;20117;-81
2022/05/15 06:23:06;;;;;;;24.17;7.85;;;13.40;99.90;;;;;;5045458;28;20045;-81
2022/05/15 06:25:31;;;;;;;24.08;7.60;;;13.50;99.90;;;;;;5046133;28;20093;-82
2022/05/15 06:27:57;;;;;;;22.63;6.50;;;13.60;99.90;;;;;;5043448;28;20107;-82
2022/05/15 06:30:23;;;;;;;24.08;7.22;;;13.70;99.90;;;;;;5043998;28;20565;-82
2022/05/15 06:32:48;;;;;;;22.00;6.68;;;13.80;99.90;;;;;;5053697;28;20036;-81
2022/05/15 06:35:15;;;;;;;23.60;6.43;;;13.90;99.90;;;;;;5052893;28;20033;-80
2022/05/15 06:37:41;;;;;;;23.35;6.32;;;14.00;99.90;;;;;;5054568;28;20045;-82
2022/05/15 06:40:09;;;;;;;20.10;5.82;;;14.10;99.90;;;;;;5054660;28;20040;-83
2022/05/15 06:42:34;;;;;;;21.20;5.70;;;14.20;99.90;;;;;;5054111;28;20041;-81
2022/05/15 06:45:00;;;;;;;20.23;6.15;;;14.30;99.90;;;;;;5054358;28;20033;-82
2022/05/15 06:47:26;;;;;;;23.05;6.32;;;14.30;99.90;;;;;;5054991;28;20116;-82
2022/05/15 06:49:52;;;;;;;21.20;5.88;;;14.40;99.90;;;;;;5055359;28;20068;-82
2022/05/15 06:52:18;;;;;;;22.33;5.68;;;14.50;99.90;;;;;;5052887;28;20036;-83
2022/05/15 06:54:43;;;;;;;23.08;6.35;;;14.60;99.90;;;;;;5035755;28;20033;-82
2022/05/15 06:59:53;;;;;;;15.75;5.22;;;14.90;99.90;;;;;;5052364;28;20044;-82
2022/05/15 07:02:19;;;;;;;21.70;6.38;;;14.90;99.90;;;;;;5053232;28;20490;-83
2022/05/15 07:04:44;;;;;;;19.48;5.63;;;15.00;99.90;;;;;;5033080;28;20037;-82
2022/05/15 07:07:10;;;;;;;23.95;5.78;;;15.10;99.90;;;;;;5033659;28;20037;-82
2022/05/15 07:09:36;;;;;;;22.90;5.38;;;15.20;99.90;;;;;;5034889;28;20045;-82
2022/05/15 07:12:03;;;;;;;21.90;5.43;;;15.30;99.90;;;;;;5034261;28;20491;-82
2022/05/15 07:14:29;;;;;;;19.58;5.53;;;15.40;99.90;;;;;;5045864;28;20040;-82
2022/05/15 07:16:55;;;;;;;20.23;6.00;;;15.50;99.90;;;;;;5054356;28;20102;-83
2022/05/15 07:19:20;;;;;;;19.80;5.80;;;15.60;99.90;;;;;;5052399;28;20068;-82
2022/05/15 07:21:46;;;;;;;19.23;5.63;;;15.70;99.90;;;;;;5036229;28;20440;-82
2022/05/15 07:24:11;;;;;;;18.75;4.65;;;15.90;99.90;;;;;;5052543;28;20045;-83
2022/05/15 07:26:42;;;;;;;15.57;4.90;;;16.00;99.90;;;;;;5053121;28;20036;-82
2022/05/15 07:29:08;;;;;;;13.23;4.50;;;16.10;99.90;;;;;;5052410;28;20060;-83
2022/05/15 07:31:33;;;;;;;14.43;4.53;;;16.20;99.90;;;;;;5052285;28;20134;-83
2022/05/15 07:33:59;;;;;;;19.75;5.15;;;16.30;99.90;;;;;;5037147;28;20119;-83
2022/05/15 07:36:24;;;;;;;17.20;4.82;;;16.40;99.90;;;;;;5054338;28;20041;-84
2022/05/15 07:38:50;;;;;;;17.35;4.57;;;16.50;99.90;;;;;;5070343;28;20040;-82
2022/05/15 07:41:16;;;;;;;19.35;5.20;;;16.60;99.90;;;;;;5054841;28;20033;-82
2022/05/15 07:43:41;;;;;;;16.42;4.78;;;16.70;99.90;;;;;;5054729;28;20720;-83
2022/05/15 07:46:07;;;;;;;17.70;4.65;;;16.80;99.90;;;;;;5051675;28;20037;-82
2022/05/15 07:48:33;;;;;;;21.30;5.60;;;16.80;99.90;;;;;;5054194;28;20498;-83
2022/05/15 07:50:58;;;;;;;20.65;5.03;;;17.00;99.90;;;;;;5048260;28;20486;-83
2022/05/15 07:53:25;;;;;;;15.18;4.63;;;17.10;99.90;;;;;;5064159;28;20029;-82
2022/05/15 07:55:52;;;;;;;17.15;4.65;;;17.20;99.90;;;;;;5048597;28;20542;-82
2022/05/15 07:58:18;;;;;;;17.00;4.30;;;17.30;99.90;;;;;;5049318;28;20055;-83
2022/05/15 08:00:43;;;;;;;21.08;4.70;;;17.40;99.90;;;;;;5033615;28;20033;-82
2022/05/15 08:03:11;;;;;;;17.75;4.13;;;17.50;99.90;;;;;;5017184;28;20604;-82
2022/05/15 08:08:22;;;;;;;16.83;4.82;;;17.70;99.90;;;;;;5053112;28;20042;-81
2022/05/15 08:10:49;;;;;;;17.20;4.70;;;17.80;99.90;;;;;;5037018;28;20044;-81
2022/05/15 08:13:29;;;;;;;14.55;4.30;;;17.90;99.90;;;;;;5052079;28;20041;-83
2022/05/15 08:15:55;;;;;;;14.88;4.20;;;18.00;99.90;;;;;;5050974;28;20048;-82
2022/05/15 08:23:49;;;;;;;;;;;18.30;99.90;;;;;;5033666;28;20132;-82
2022/05/15 08:26:15;;;;;;;16.48;4.30;;;18.40;99.90;;;;;;5051537;28;20062;-83
2022/05/15 08:28:41;;;;;;;18.38;3.95;;;18.40;99.90;;;;;;5025159;28;20044;-81
2022/05/15 08:31:08;;;;;;;16.52;4.43;;;18.50;99.90;;;;;;5041699;28;20036;-83
2022/05/15 08:33:35;;;;;;;18.00;4.35;;;18.60;99.90;;;;;;5051493;28;20024;-82
2022/05/15 08:36:01;;;;;;;14.02;4.13;;;18.60;99.90;;;;;;5032852;28;20037;-83
2022/05/15 08:38:27;;;;;;;18.75;4.25;;;18.80;99.90;;;;;;5051683;28;20047;-83
2022/05/15 08:41:00;;;;;;;15.57;4.00;;;18.80;99.90;;;;;;5052219;28;20546;-81
2022/05/15 08:43:44;;;;;;;20.25;4.93;;;18.90;99.90;;;;;;5053678;28;20045;-82
2022/05/15 08:46:52;;;;;;;15.70;4.20;;;19.00;99.90;;;;;;5048599;28;20024;-81
2022/05/15 08:49:34;;;;;;;18.23;4.68;;;19.00;99.90;;;;;;5044292;28;20596;-82
2022/05/15 08:52:11;;;;;;;17.38;4.03;;;19.10;99.90;;;;;;5045486;28;20429;-83
2022/05/15 08:54:48;;;;;;;15.15;3.58;;;19.20;99.90;;;;;;5043422;28;20033;-81
2022/05/15 08:57:20;;;;;;;17.23;4.32;;;19.20;99.90;;;;;;5044420;28;20029;-81
2022/05/15 08:59:57;;;;;;;16.83;4.28;;;19.30;99.90;;;;;;5051571;28;20493;-81
2022/05/15 09:02:23;;;;;;;15.25;3.65;;;19.30;99.90;;;;;;5028617;28;20495;-82
2022/05/15 09:04:52;;;;;;;16.15;3.92;;;19.30;99.90;;;;;;5025478;28;20401;-81
2022/05/15 09:07:33;;;;;;;14.85;3.83;;;19.20;99.90;;;;;;5047952;28;20041;-82
2022/05/15 09:10:24;;;;;;;17.02;3.90;;;19.20;99.90;;;;;;5029491;28;20028;-82
2022/05/15 09:12:59;;;;;;;18.10;4.00;;;19.20;99.90;;;;;;5045658;28;20036;-81
2022/05/15 09:15:30;;;;;;;16.15;4.07;;;19.20;99.90;;;;;;5049852;28;20037;-82
2022/05/15 09:18:03;;;;;;;16.10;3.88;;;19.10;99.90;;;;;;5051714;28;20045;-80
2022/05/15 09:20:55;;;;;;;18.55;4.43;;;19.20;99.90;;;;;;5050706;28;20036;-82
2022/05/15 09:23:34;;;;;;;18.48;3.80;;;19.30;99.90;;;;;;5048014;28;20079;-81
2022/05/15 09:26:06;;;;;;;14.70;3.78;;;19.40;99.90;;;;;;5031069;28;20495;-81
2022/05/15 09:28:42;;;;;;;15.15;3.88;;;19.60;99.90;;;;;;5051148;28;20465;-80
2022/05/15 09:31:23;;;;;;;18.13;3.78;;;19.60;99.90;;;;;;5050221;28;20033;-81
2022/05/15 09:34:00;;;;;;;17.83;4.35;;;19.70;99.90;;;;;;5059832;28;20071;-79
2022/05/15 09:36:34;;;;;;;18.08;4.50;;;19.70;99.90;;;;;;5034970;28;20041;-82
2022/05/15 09:39:24;;;;;;;19.05;4.35;;;19.80;99.90;;;;;;5049170;28;20123;-83
2022/05/15 09:45:18;;;;;;;15.23;4.00;;;19.90;99.90;;;;;;5044367;28;20041;-81
2022/05/15 09:48:02;;;;;;;13.75;3.92;;;20.00;99.90;;;;;;5049628;28;20037;-82
2022/05/15 09:50:46;;;;;;;14.48;3.72;;;20.10;99.90;;;;;;5048043;28;20028;-82
2022/05/15 09:53:22;;;;;;;15.32;3.83;;;20.10;99.90;;;;;;5051622;28;20052;-83
2022/05/15 09:56:19;;;;;;;16.38;4.03;;;20.20;99.90;;;;;;5052097;28;20132;-80
2022/05/15 09:59:01;;;;;;;23.80;4.32;;;20.30;99.90;;;;;;5046363;28;20126;-80
2022/05/15 10:01:33;;;;;;;13.65;4.07;;;20.40;99.90;;;;;;5050918;28;20045;-83
2022/05/15 10:03:59;;;;;;;14.85;3.90;;;20.40;99.90;;;;;;5031521;28;20518;-83
2022/05/15 10:06:31;;;;;;;14.93;3.92;;;20.40;99.90;;;;;;5051792;28;20037;-81
2022/05/15 10:09:06;;;;;;;14.32;4.07;;;20.50;99.90;;;;;;5047952;28;20071;-83
2022/05/15 10:11:33;;;;;;;20.58;4.25;;;20.60;99.90;;;;;;5047586;28;20495;-83
2022/05/15 10:14:00;;;;;;;12.70;3.78;;;20.70;99.90;;;;;;5062537;28;20047;-82
2022/05/15 10:16:41;;;;;;;15.05;4.15;;;20.70;99.90;;;;;;5049073;28;20037;-84
2022/05/15 10:19:16;;;;;;;13.15;4.03;;;20.80;99.90;;;;;;5026955;28;20057;-83
2022/05/15 10:21:47;;;;;;;13.43;3.58;;;20.90;99.90;;;;;;5044933;28;20456;-83
2022/05/15 10:24:17;;;;;;;12.73;3.70;;;21.00;99.90;;;;;;5034147;28;20116;-82
2022/05/15 10:26:45;;;;;;;10.57;3.90;;;21.10;99.90;;;;;;5044670;28;20037;-84
2022/05/15 10:29:25;;;;;;;14.30;3.70;;;21.10;99.90;;;;;;5042476;28;20513;-83
2022/05/15 10:31:57;;;;;;;15.95;4.78;;;21.20;99.90;;;;;;5026534;28;20040;-85
2022/05/15 10:34:26;;;;;;;11.05;3.63;;;21.20;99.90;;;;;;5047798;28;20041;-84
2022/05/15 10:37:03;;;;;;;16.08;4.20;;;21.40;99.90;;;;;;5044642;28;20029;-83
2022/05/15 10:39:59;;;;;;;17.13;4.10;;;21.60;99.90;;;;;;5040459;28;20375;-85
2022/05/15 10:42:47;;;;;;;15.25;4.18;;;21.50;99.90;;;;;;5048154;28;20041;-86
2022/05/15 10:45:22;;;;;;;15.07;4.13;;;21.60;99.90;;;;;;5028916;28;20457;-81
2022/05/15 10:48:13;;;;;;;17.88;4.28;;;21.70;99.80;;;;;;5049721;28;20041;-84
2022/05/15 10:50:46;;;;;;;14.88;3.92;;;21.80;99.90;;;;;;5004311;28;20051;-84
2022/05/15 10:59:32;;;;;;;14.15;4.57;;;22.00;99.90;;;;;;5045360;28;20099;-84
2022/05/15 11:02:47;;;;;;;14.90;3.95;;;22.00;97.80;;;;;;5032053;28;20123;-84
2022/05/15 11:05:24;;;;;;;14.68;3.92;;;22.00;99.90;;;;;;5035190;28;20060;-86
2022/05/15 11:08:18;;;;;;;10.88;3.70;;;22.20;99.90;;;;;;5028071;28;20044;-87
2022/05/15 11:11:08;;;;;;;11.33;3.37;;;22.30;99.40;;;;;;5029327;28;20069;-86
2022/05/15 11:14:05;;;;;;;13.73;3.78;;;22.40;99.10;;;;;;5046219;28;20507;-87
2022/05/15 11:17:01;;;;;;;15.55;4.18;;;22.70;99.10;;;;;;5032086;28;20041;-85
2022/05/15 11:19:29;;;;;;;14.18;3.88;;;22.80;96.70;;;;;;5035361;28;20379;-85
2022/05/15 11:22:10;;;;;;;12.50;3.38;;;22.90;98.80;;;;;;5052166;28;20091;-83
2022/05/15 11:25:08;;;;;;;15.27;3.88;;;22.90;97.50;;;;;;5027037;28;20497;-88
2022/05/15 11:27:38;;;;;;;14.60;3.63;;;22.90;97.40;;;;;;5052717;28;20047;-88
2022/05/15 11:30:14;;;;;;;13.32;4.03;;;23.10;97.90;;;;;;5033034;28;20116;-87
2022/05/15 11:32:45;;;;;;;15.50;3.90;;;23.10;95.00;;;;;;5053239;28;20041;-83
2022/05/15 11:35:25;;;;;;;11.40;3.72;;;23.10;97.40;;;;;;5051422;28;20482;-87
2022/05/15 11:37:57;;;;;;;11.50;3.70;;;23.40;96.60;;;;;;5049907;28;20491;-87
2022/05/15 11:40:37;;;;;;;13.00;3.22;;;23.50;96.30;;;;;;5061838;28;20049;-89
2022/05/15 11:43:31;;;;;;;12.93;3.88;;;23.50;94.80;;;;;;5049677;28;20044;-87
2022/05/15 11:46:01;;;;;;;11.35;3.55;;;23.70;96.20;;;;;;5046231;28;20759;-86
2022/05/15 11:48:39;;;;;;;12.55;3.40;;;24.00;96.30;;;;;;5038311;28;20487;-85
2022/05/15 11:51:25;;;;;;;13.85;3.70;;;24.10;95.60;;;;;;5033027;28;20029;-87
2022/05/15 11:54:10;;;;;;;14.90;3.80;;;24.30;95.20;;;;;;5046065;28;20037;-86
2022/05/15 11:56:51;;;;;;;13.63;3.55;;;24.30;94.20;;;;;;5029791;28;20028;-84
2022/05/15 11:59:32;;;;;;;11.45;3.20;;;24.30;94.50;;;;;;5044453;28;20073;-84
2022/05/15 12:02:03;;;;;;;13.35;3.42;;;24.10;94.50;;;;;;5042108;28;20082;-86
2022/05/15 12:04:35;;;;;;;12.70;3.33;;;23.80;93.70;;;;;;5048435;28;20048;-80
2022/05/15 12:07:00;;;;;;;14.75;3.85;;;24.00;93.70;;;;;;5043754;28;20498;-84
2022/05/15 12:09:41;;;;;;;11.75;3.17;;;24.30;93.70;;;;;;5047673;28;20116;-84
2022/05/15 12:12:27;;;;;;;12.30;3.75;;;24.40;93.20;;;;;;5030301;28;20115;-82
2022/05/15 12:15:32;;;;;;;13.63;3.80;;;24.70;93.30;;;;;;5048788;28;20686;-80
2022/05/15 12:18:00;;;;;;;13.13;3.13;;;24.90;92.20;;;;;;5045724;28;20079;-81
2022/05/15 12:20:29;;;;;;;9.75;3.00;;;24.90;92.50;;;;;;5047006;28;20032;-81
2022/05/15 12:23:05;;;;;;;10.88;2.70;;;25.00;92.40;;;;;;5031113;28;20105;-83
2022/05/15 12:25:51;;;;;;;11.45;3.30;;;25.20;92.30;;;;;;5046287;28;20421;-83
2022/05/15 12:31:28;;;;;;;12.05;3.28;;;25.50;90.60;;;;;;5047933;28;20076;-83
2022/05/15 12:33:55;;;;;;;11.75;3.35;;;25.70;91.50;;;;;;5042832;28;20041;-84
2022/05/15 12:36:35;;;;;;;10.38;3.13;;;25.80;90.90;;;;;;5048451;28;20060;-84
2022/05/15 12:39:02;;;;;;;12.50;3.17;;;25.90;90.50;;;;;;5033382;28;20534;-81
2022/05/15 12:41:37;;;;;;;12.13;3.05;;;25.90;90.50;;;;;;5046854;28;20486;-84
2022/05/15 12:44:06;;;;;;;10.38;3.10;;;26.00;87.10;;;;;;5037534;28;20412;-82
2022/05/15 12:46:56;;;;;;;9.93;2.97;;;26.00;89.30;;;;;;5025083;28;20033;-83
2022/05/15 12:49:35;;;;;;;10.57;3.05;;;26.10;89.90;;;;;;5042699;28;20049;-82
2022/05/15 12:52:16;;;;;;;11.45;3.00;;;26.20;88.90;;;;;;5029876;28;20375;-83
2022/05/15 12:54:46;;;;;;;8.20;2.70;;;26.30;87.90;;;;;;5040375;28;20033;-82
2022/05/15 12:57:16;;;;;;;9.65;3.00;;;26.30;87.60;;;;;;5032952;28;20518;-83
2022/05/15 12:59:45;;;;;;;9.75;2.95;;;26.40;87.10;;;;;;5048330;28;20116;-80
2022/05/15 13:02:34;;;;;;;6.80;2.33;;;26.40;86.90;;;;;;5038821;28;20032;-83
2022/05/15 13:05:19;;;;;;;9.70;2.70;;;26.50;85.60;;;;;;5061169;28;20120;-84
2022/05/15 13:07:44;;;;;;;6.18;2.28;;;26.60;85.90;;;;;;5031916;28;20099;-83
2022/05/15 13:10:14;;;;;;;9.65;2.63;;;26.60;85.30;;;;;;5031171;28;20041;-86
2022/05/15 13:13:08;;;;;;;9.80;2.50;;;26.80;85.70;;;;;;5048380;28;20048;-79
2022/05/15 13:15:35;;;;;;;9.38;2.90;;;26.60;84.20;;;;;;5028174;28;20087;-82
2022/05/15 13:18:08;;;;;;;9.23;2.40;;;26.80;84.30;;;;;;5051598;28;20048;-81
2022/05/15 13:20:52;;;;;;;11.43;2.95;;;26.80;84.80;;;;;;5049550;28;20052;-83
2022/05/15 13:23:18;;;;;;;8.07;2.58;;;26.50;79.30;;;;;;5043542;28;20041;-80
2022/05/15 13:25:50;;;;;;;10.98;2.80;;;26.60;83.10;;;;;;5048551;28;20033;-84
2022/05/15 13:28:16;;;;;;;7.05;2.35;;;26.60;83.60;;;;;;5048045;28;20049;-83
2022/05/15 13:30:43;;;;;;;7.57;2.53;;;26.80;83.60;;;;;;5031656;28;20029;-81